sensor_id;sensor_type;location;lat;lon;timestamp;temperature;humidity
10030;DHT22;5055;52.054;8.524;2024-02-28T00:02:06;-1.50;97.00
10030;DHT22;5055;52.054;8.524;2024-02-28T00:04:34;-1.50;97.00
10030;DHT22;5055;52.054;8.524;2024-02-28T00:07:02;-1.60;97.00
10030;DHT22;5055;52.054;8.524;2024-02-28T00:09:30;-1.60;97.00
10030;DHT22;5055;52.054;8.524;2024-02-28T00:11:59;-1.60;97.00
10030;DHT22;5055;52.054;8.524;2024-02-28T00:14:27;-1.70;97.00
10030;DHT22;5055;52.054;8.524;2024-02-28T00:16:57;-1.70;97.00
10030;DHT22;5055;52.054;8.524;2024-02-28T00:19:25;-1.70;97.00
10030;DHT22;5055;52.054;8.524;2024-02-28T00:21:53;-1.70;97.00
10030;DHT22;5055;52.054;8.524;2024-02-28T00:24:22;-1.80;97.00
10030;DHT22;5055;52.054;8.524;2024-02-28T00:26:51;-1.80;97.00
10030;DHT22;5055;52.054;8.524;2024-02-28T00:29:19;-1.80;97.00
10030;DHT22;5055;52.054;8.524;2024-02-28T00:31:47;-1.80;97.00
10030;DHT22;5055;52.054;8.524;2024-02-28T00:34:16;-1.80;97.00
10030;DHT22;5055;52.054;8.524;2024-02-28T00:36:44;-1.80;97.00
10030;DHT22;5055;52.054;8.524;2024-02-28T00:39:22;-1.80;97.00
10030;DHT22;5055;52.054;8.524;2024-02-28T00:41:50;-1.90;97.00
10030;DHT22;5055;52.054;8.524;2024-02-28T00:44:19;-1.90;97.00
10030;DHT22;5055;52.054;8.524;2024-02-28T00:46:47;-1.90;97.00
10030;DHT22;5055;52.054;8.524;2024-02-28T00:49:17;-2.00;97.00
10030;DHT22;5055;52.054;8.524;2024-02-28T00:51:46;-2.00;97.00
10030;DHT22;5055;52.054;8.524;2024-02-28T00:54:14;-2.00;97.00
10030;DHT22;5055;52.054;8.524;2024-02-28T00:56:42;-2.00;97.00
10030;DHT22;5055;52.054;8.524;2024-02-28T00:59:10;-2.10;97.00
10030;DHT22;5055;52.054;8.524;2024-02-28T01:01:40;-2.10;97.00
10030;DHT22;5055;52.054;8.524;2024-02-28T01:04:08;-2.00;97.00
10030;DHT22;5055;52.054;8.524;2024-02-28T01:06:38;-2.00;97.00
10030;DHT22;5055;52.054;8.524;2024-02-28T01:09:06;-1.90;97.00
10030;DHT22;5055;52.054;8.524;2024-02-28T01:11:34;-1.90;97.00
10030;DHT22;5055;52.054;8.524;2024-02-28T01:14:02;-1.90;97.00
10030;DHT22;5055;52.054;8.524;2024-02-28T01:16:30;-2.00;97.00
10030;DHT22;5055;52.054;8.524;2024-02-28T01:18:58;-2.00;97.00
10030;DHT22;5055;52.054;8.524;2024-02-28T01:21:27;-2.10;97.00
10030;DHT22;5055;52.054;8.524;2024-02-28T01:23:56;-2.10;97.00
10030;DHT22;5055;52.054;8.524;2024-02-28T01:26:24;-2.10;97.00
10030;DHT22;5055;52.054;8.524;2024-02-28T01:28:53;-2.10;97.00
10030;DHT22;5055;52.054;8.524;2024-02-28T01:31:21;-2.10;97.00
10030;DHT22;5055;52.054;8.524;2024-02-28T01:33:49;-2.10;97.00
10030;DHT22;5055;52.054;8.524;2024-02-28T01:36:17;-2.10;97.00
10030;DHT22;5055;52.054;8.524;2024-02-28T01:38:45;-2.20;97.00
10030;DHT22;5055;52.054;8.524;2024-02-28T01:41:15;-2.20;97.00
10030;DHT22;5055;52.054;8.524;2024-02-28T01:43:43;-2.20;97.00
10030;DHT22;5055;52.054;8.524;2024-02-28T01:46:20;-2.20;97.00
10030;DHT22;5055;52.054;8.524;2024-02-28T01:48:50;-2.30;97.00
10030;DHT22;5055;52.054;8.524;2024-02-28T01:51:18;-2.30;97.00
10030;DHT22;5055;52.054;8.524;2024-02-28T01:53:47;-2.30;97.00
10030;DHT22;5055;52.054;8.524;2024-02-28T01:56:16;-2.40;97.00
10030;DHT22;5055;52.054;8.524;2024-02-28T01:58:46;-2.40;97.00
10030;DHT22;5055;52.054;8.524;2024-02-28T02:01:15;-2.40;97.00
10030;DHT22;5055;52.054;8.524;2024-02-28T02:03:43;-2.40;97.00
10030;DHT22;5055;52.054;8.524;2024-02-28T02:06:12;-2.40;97.00
10030;DHT22;5055;52.054;8.524;2024-02-28T02:08:40;-2.30;97.00
10030;DHT22;5055;52.054;8.524;2024-02-28T02:11:09;-2.30;97.00
10030;DHT22;5055;52.054;8.524;2024-02-28T02:13:49;-2.30;97.00
10030;DHT22;5055;52.054;8.524;2024-02-28T02:16:18;-2.40;97.00
10030;DHT22;5055;52.054;8.524;2024-02-28T02:18:47;-2.40;97.00
10030;DHT22;5055;52.054;8.524;2024-02-28T02:21:18;-2.50;97.00
10030;DHT22;5055;52.054;8.524;2024-02-28T02:23:47;-2.50;97.00
10030;DHT22;5055;52.054;8.524;2024-02-28T02:26:15;-2.60;97.00
10030;DHT22;5055;52.054;8.524;2024-02-28T02:28:44;-2.60;97.00
10030;DHT22;5055;52.054;8.524;2024-02-28T02:31:13;-2.60;97.00
10030;DHT22;5055;52.054;8.524;2024-02-28T02:33:41;-2.60;97.00
10030;DHT22;5055;52.054;8.524;2024-02-28T02:36:09;-2.70;97.00
10030;DHT22;5055;52.054;8.524;2024-02-28T02:38:38;-2.70;97.00
10030;DHT22;5055;52.054;8.524;2024-02-28T02:41:07;-2.70;97.00
10030;DHT22;5055;52.054;8.524;2024-02-28T02:43:35;-2.70;97.00
10030;DHT22;5055;52.054;8.524;2024-02-28T02:46:04;-2.60;97.00
10030;DHT22;5055;52.054;8.524;2024-02-28T02:48:32;-2.60;97.00
10030;DHT22;5055;52.054;8.524;2024-02-28T02:51:00;-2.60;97.00
10030;DHT22;5055;52.054;8.524;2024-02-28T02:53:28;-2.60;97.00
10030;DHT22;5055;52.054;8.524;2024-02-28T02:55:56;-2.70;97.00
10030;DHT22;5055;52.054;8.524;2024-02-28T02:58:26;-2.70;97.00
10030;DHT22;5055;52.054;8.524;2024-02-28T03:00:54;-2.80;97.00
10030;DHT22;5055;52.054;8.524;2024-02-28T03:03:22;-2.80;97.00
10030;DHT22;5055;52.054;8.524;2024-02-28T03:05:50;-2.80;97.00
10030;DHT22;5055;52.054;8.524;2024-02-28T03:08:18;-2.80;97.00
10030;DHT22;5055;52.054;8.524;2024-02-28T03:10:46;-2.80;97.00
10030;DHT22;5055;52.054;8.524;2024-02-28T03:13:15;-2.70;97.00
10030;DHT22;5055;52.054;8.524;2024-02-28T03:15:44;-2.70;97.00
10030;DHT22;5055;52.054;8.524;2024-02-28T03:18:12;-2.80;97.00
10030;DHT22;5055;52.054;8.524;2024-02-28T03:20:41;-2.80;97.00
10030;DHT22;5055;52.054;8.524;2024-02-28T03:23:09;-2.80;97.00
10030;DHT22;5055;52.054;8.524;2024-02-28T03:25:37;-2.90;97.00
10030;DHT22;5055;52.054;8.524;2024-02-28T03:28:06;-2.90;97.00
10030;DHT22;5055;52.054;8.524;2024-02-28T03:30:34;-2.90;97.00
10030;DHT22;5055;52.054;8.524;2024-02-28T03:33:04;-2.90;97.00
10030;DHT22;5055;52.054;8.524;2024-02-28T03:35:32;-2.90;97.00
10030;DHT22;5055;52.054;8.524;2024-02-28T03:38:00;-3.00;97.00
10030;DHT22;5055;52.054;8.524;2024-02-28T03:40:28;-3.00;97.00
10030;DHT22;5055;52.054;8.524;2024-02-28T03:42:56;-3.00;97.00
10030;DHT22;5055;52.054;8.524;2024-02-28T03:45:28;-3.00;97.00
10030;DHT22;5055;52.054;8.524;2024-02-28T03:47:56;-3.00;97.00
10030;DHT22;5055;52.054;8.524;2024-02-28T03:50:26;-3.00;97.00
10030;DHT22;5055;52.054;8.524;2024-02-28T03:52:54;-3.00;97.00
10030;DHT22;5055;52.054;8.524;2024-02-28T03:55:22;-3.00;97.00
10030;DHT22;5055;52.054;8.524;2024-02-28T03:57:50;-3.00;97.00
10030;DHT22;5055;52.054;8.524;2024-02-28T04:00:19;-3.00;97.00
10030;DHT22;5055;52.054;8.524;2024-02-28T04:02:48;-3.00;97.00
10030;DHT22;5055;52.054;8.524;2024-02-28T04:05:16;-3.00;97.00
10030;DHT22;5055;52.054;8.524;2024-02-28T04:07:45;-3.00;97.00
10030;DHT22;5055;52.054;8.524;2024-02-28T04:10:13;-3.00;97.00
10030;DHT22;5055;52.054;8.524;2024-02-28T04:12:43;-3.10;97.00
10030;DHT22;5055;52.054;8.524;2024-02-28T04:15:12;-3.10;97.00
10030;DHT22;5055;52.054;8.524;2024-02-28T04:17:42;-3.10;97.00
10030;DHT22;5055;52.054;8.524;2024-02-28T04:20:11;-3.10;97.00
10030;DHT22;5055;52.054;8.524;2024-02-28T04:22:39;-3.10;97.00
10030;DHT22;5055;52.054;8.524;2024-02-28T04:25:09;-3.10;97.00
10030;DHT22;5055;52.054;8.524;2024-02-28T04:27:38;-3.10;97.00
10030;DHT22;5055;52.054;8.524;2024-02-28T04:30:07;-3.10;97.00
10030;DHT22;5055;52.054;8.524;2024-02-28T04:32:36;-3.10;97.00
10030;DHT22;5055;52.054;8.524;2024-02-28T04:35:05;-3.10;97.00
10030;DHT22;5055;52.054;8.524;2024-02-28T04:37:33;-3.10;97.00
10030;DHT22;5055;52.054;8.524;2024-02-28T04:40:04;-3.20;97.00
10030;DHT22;5055;52.054;8.524;2024-02-28T04:42:34;-3.20;97.00
10030;DHT22;5055;52.054;8.524;2024-02-28T04:45:03;-3.10;97.00
10030;DHT22;5055;52.054;8.524;2024-02-28T04:47:31;-3.10;97.00
10030;DHT22;5055;52.054;8.524;2024-02-28T04:50:10;-3.10;97.00
10030;DHT22;5055;52.054;8.524;2024-02-28T04:52:38;-3.10;97.00
10030;DHT22;5055;52.054;8.524;2024-02-28T04:55:07;-3.20;97.00
10030;DHT22;5055;52.054;8.524;2024-02-28T04:57:36;-3.20;97.00
10030;DHT22;5055;52.054;8.524;2024-02-28T05:00:05;-3.20;97.00
10030;DHT22;5055;52.054;8.524;2024-02-28T05:02:34;-3.10;97.00
10030;DHT22;5055;52.054;8.524;2024-02-28T05:05:03;-3.10;97.00
10030;DHT22;5055;52.054;8.524;2024-02-28T05:07:31;-3.10;97.00
10030;DHT22;5055;52.054;8.524;2024-02-28T05:09:59;-3.10;97.00
10030;DHT22;5055;52.054;8.524;2024-02-28T05:12:28;-3.10;97.00
10030;DHT22;5055;52.054;8.524;2024-02-28T05:14:57;-3.10;97.00
10030;DHT22;5055;52.054;8.524;2024-02-28T05:17:25;-3.00;97.00
10030;DHT22;5055;52.054;8.524;2024-02-28T05:19:54;-2.90;97.00
10030;DHT22;5055;52.054;8.524;2024-02-28T05:22:24;-2.80;97.00
10030;DHT22;5055;52.054;8.524;2024-02-28T05:24:52;-2.70;97.00
10030;DHT22;5055;52.054;8.524;2024-02-28T05:27:20;-2.70;97.00
10030;DHT22;5055;52.054;8.524;2024-02-28T05:29:49;-2.50;97.00
10030;DHT22;5055;52.054;8.524;2024-02-28T05:32:18;-2.40;97.00
10030;DHT22;5055;52.054;8.524;2024-02-28T05:34:48;-2.30;97.00
10030;DHT22;5055;52.054;8.524;2024-02-28T05:37:16;-2.20;97.00
10030;DHT22;5055;52.054;8.524;2024-02-28T05:39:45;-2.20;97.00
10030;DHT22;5055;52.054;8.524;2024-02-28T05:42:14;-2.10;97.00
10030;DHT22;5055;52.054;8.524;2024-02-28T05:44:48;-2.10;97.00
10030;DHT22;5055;52.054;8.524;2024-02-28T05:47:18;-2.10;97.00
10030;DHT22;5055;52.054;8.524;2024-02-28T05:49:51;-2.10;97.00
10030;DHT22;5055;52.054;8.524;2024-02-28T05:52:19;-2.00;97.00
10030;DHT22;5055;52.054;8.524;2024-02-28T05:54:47;-2.00;97.00
10030;DHT22;5055;52.054;8.524;2024-02-28T05:57:16;-1.90;97.00
10030;DHT22;5055;52.054;8.524;2024-02-28T05:59:44;-1.90;97.00
10030;DHT22;5055;52.054;8.524;2024-02-28T06:02:12;-1.80;97.00
10030;DHT22;5055;52.054;8.524;2024-02-28T06:04:42;-1.70;97.00
10030;DHT22;5055;52.054;8.524;2024-02-28T06:07:10;-1.70;97.00
10030;DHT22;5055;52.054;8.524;2024-02-28T06:09:38;-1.60;97.00
10030;DHT22;5055;52.054;8.524;2024-02-28T06:12:07;-1.50;97.00
10030;DHT22;5055;52.054;8.524;2024-02-28T06:14:35;-1.50;97.00
10030;DHT22;5055;52.054;8.524;2024-02-28T06:17:04;-1.40;97.00
10030;DHT22;5055;52.054;8.524;2024-02-28T06:19:32;-1.30;97.00
10030;DHT22;5055;52.054;8.524;2024-02-28T06:22:02;-1.30;97.00
10030;DHT22;5055;52.054;8.524;2024-02-28T06:24:33;-1.20;97.00
10030;DHT22;5055;52.054;8.524;2024-02-28T06:27:01;-1.20;97.00
10030;DHT22;5055;52.054;8.524;2024-02-28T06:29:29;-1.10;97.00
10030;DHT22;5055;52.054;8.524;2024-02-28T06:31:57;-1.00;97.00
10030;DHT22;5055;52.054;8.524;2024-02-28T06:34:26;-0.90;97.00
10030;DHT22;5055;52.054;8.524;2024-02-28T06:36:54;-0.80;97.00
10030;DHT22;5055;52.054;8.524;2024-02-28T06:39:23;-0.60;97.00
10030;DHT22;5055;52.054;8.524;2024-02-28T06:41:51;-0.50;97.00
10030;DHT22;5055;52.054;8.524;2024-02-28T06:44:19;-0.40;97.00
10030;DHT22;5055;52.054;8.524;2024-02-28T06:46:47;-0.30;97.00
10030;DHT22;5055;52.054;8.524;2024-02-28T06:49:16;-0.20;97.00
10030;DHT22;5055;52.054;8.524;2024-02-28T06:51:44;-0.20;97.00
10030;DHT22;5055;52.054;8.524;2024-02-28T06:54:13;-0.10;97.00
10030;DHT22;5055;52.054;8.524;2024-02-28T06:56:42;-0.10;97.00
10030;DHT22;5055;52.054;8.524;2024-02-28T06:59:11;-0.10;97.00
10030;DHT22;5055;52.054;8.524;2024-02-28T07:01:40;0.00;97.00
10030;DHT22;5055;52.054;8.524;2024-02-28T07:04:08;0.00;97.00
10030;DHT22;5055;52.054;8.524;2024-02-28T07:06:36;0.10;97.00
10030;DHT22;5055;52.054;8.524;2024-02-28T07:09:04;0.20;97.00
10030;DHT22;5055;52.054;8.524;2024-02-28T07:11:32;0.20;97.00
10030;DHT22;5055;52.054;8.524;2024-02-28T07:14:02;0.30;97.00
10030;DHT22;5055;52.054;8.524;2024-02-28T07:16:30;0.30;97.00
10030;DHT22;5055;52.054;8.524;2024-02-28T07:19:00;0.30;97.00
10030;DHT22;5055;52.054;8.524;2024-02-28T07:21:28;0.30;97.00
10030;DHT22;5055;52.054;8.524;2024-02-28T07:23:59;0.40;97.00
10030;DHT22;5055;52.054;8.524;2024-02-28T07:26:27;0.40;97.00
10030;DHT22;5055;52.054;8.524;2024-02-28T07:28:55;0.50;97.00
10030;DHT22;5055;52.054;8.524;2024-02-28T07:31:25;0.50;97.00
10030;DHT22;5055;52.054;8.524;2024-02-28T07:33:53;0.50;97.00
10030;DHT22;5055;52.054;8.524;2024-02-28T07:36:21;0.60;97.00
10030;DHT22;5055;52.054;8.524;2024-02-28T07:38:49;0.60;97.00
10030;DHT22;5055;52.054;8.524;2024-02-28T07:41:19;0.70;97.00
10030;DHT22;5055;52.054;8.524;2024-02-28T07:43:47;0.80;97.00
10030;DHT22;5055;52.054;8.524;2024-02-28T07:46:15;0.90;97.00
10030;DHT22;5055;52.054;8.524;2024-02-28T07:48:45;1.00;97.00
10030;DHT22;5055;52.054;8.524;2024-02-28T07:51:13;1.00;97.00
10030;DHT22;5055;52.054;8.524;2024-02-28T07:53:42;1.10;97.00
10030;DHT22;5055;52.054;8.524;2024-02-28T07:56:15;1.10;97.00
10030;DHT22;5055;52.054;8.524;2024-02-28T07:58:44;1.10;97.00
10030;DHT22;5055;52.054;8.524;2024-02-28T08:01:12;1.20;97.00
10030;DHT22;5055;52.054;8.524;2024-02-28T08:03:41;1.20;97.00
10030;DHT22;5055;52.054;8.524;2024-02-28T08:06:11;1.30;97.00
10030;DHT22;5055;52.054;8.524;2024-02-28T08:08:39;1.30;97.00
10030;DHT22;5055;52.054;8.524;2024-02-28T08:11:07;1.30;97.00
10030;DHT22;5055;52.054;8.524;2024-02-28T08:13:35;1.40;97.00
10030;DHT22;5055;52.054;8.524;2024-02-28T08:16:04;1.40;97.00
10030;DHT22;5055;52.054;8.524;2024-02-28T08:18:33;1.40;97.00
10030;DHT22;5055;52.054;8.524;2024-02-28T08:21:02;1.40;97.00
10030;DHT22;5055;52.054;8.524;2024-02-28T08:23:31;1.40;97.00
10030;DHT22;5055;52.054;8.524;2024-02-28T08:25:59;1.50;97.00
10030;DHT22;5055;52.054;8.524;2024-02-28T08:28:28;1.50;97.00
10030;DHT22;5055;52.054;8.524;2024-02-28T08:30:56;1.50;97.00
10030;DHT22;5055;52.054;8.524;2024-02-28T08:33:24;1.60;97.00
10030;DHT22;5055;52.054;8.524;2024-02-28T08:35:53;1.60;97.00
10030;DHT22;5055;52.054;8.524;2024-02-28T08:38:21;1.70;97.00
10030;DHT22;5055;52.054;8.524;2024-02-28T08:40:51;1.70;97.00
10030;DHT22;5055;52.054;8.524;2024-02-28T08:43:19;1.70;97.00
10030;DHT22;5055;52.054;8.524;2024-02-28T08:45:47;1.70;97.00
10030;DHT22;5055;52.054;8.524;2024-02-28T08:48:17;1.70;97.00
10030;DHT22;5055;52.054;8.524;2024-02-28T08:50:45;1.70;97.00
10030;DHT22;5055;52.054;8.524;2024-02-28T08:53:13;1.80;97.00
10030;DHT22;5055;52.054;8.524;2024-02-28T08:55:42;1.90;97.00
10030;DHT22;5055;52.054;8.524;2024-02-28T08:58:11;1.90;97.00
10030;DHT22;5055;52.054;8.524;2024-02-28T09:00:40;2.00;97.00
10030;DHT22;5055;52.054;8.524;2024-02-28T09:03:08;2.00;97.00
10030;DHT22;5055;52.054;8.524;2024-02-28T09:05:36;2.10;97.00
10030;DHT22;5055;52.054;8.524;2024-02-28T09:08:05;2.20;97.00
10030;DHT22;5055;52.054;8.524;2024-02-28T09:10:37;2.20;97.00
10030;DHT22;5055;52.054;8.524;2024-02-28T09:13:05;2.20;97.00
10030;DHT22;5055;52.054;8.524;2024-02-28T09:15:38;2.30;97.00
10030;DHT22;5055;52.054;8.524;2024-02-28T09:18:20;2.40;97.00
10030;DHT22;5055;52.054;8.524;2024-02-28T09:20:48;2.50;97.00
10030;DHT22;5055;52.054;8.524;2024-02-28T09:23:16;2.60;97.00
10030;DHT22;5055;52.054;8.524;2024-02-28T09:25:44;2.70;97.00
10030;DHT22;5055;52.054;8.524;2024-02-28T09:28:13;2.80;97.00
10030;DHT22;5055;52.054;8.524;2024-02-28T09:30:44;2.70;97.00
10030;DHT22;5055;52.054;8.524;2024-02-28T09:33:19;2.80;97.00
10030;DHT22;5055;52.054;8.524;2024-02-28T09:35:47;2.80;97.00
10030;DHT22;5055;52.054;8.524;2024-02-28T09:38:16;2.80;97.00
10030;DHT22;5055;52.054;8.524;2024-02-28T09:40:46;2.80;97.00
10030;DHT22;5055;52.054;8.524;2024-02-28T09:43:19;2.80;97.00
10030;DHT22;5055;52.054;8.524;2024-02-28T09:45:49;2.80;97.00
10030;DHT22;5055;52.054;8.524;2024-02-28T09:48:18;2.80;97.00
10030;DHT22;5055;52.054;8.524;2024-02-28T09:50:47;2.80;97.00
10030;DHT22;5055;52.054;8.524;2024-02-28T09:53:15;2.90;97.00
10030;DHT22;5055;52.054;8.524;2024-02-28T09:55:43;2.90;97.00
10030;DHT22;5055;52.054;8.524;2024-02-28T09:58:12;2.90;97.00
10030;DHT22;5055;52.054;8.524;2024-02-28T10:00:41;2.90;97.00
10030;DHT22;5055;52.054;8.524;2024-02-28T10:03:14;3.00;97.00
10030;DHT22;5055;52.054;8.524;2024-02-28T10:05:44;2.90;97.00
10030;DHT22;5055;52.054;8.524;2024-02-28T10:08:13;2.90;97.00
10030;DHT22;5055;52.054;8.524;2024-02-28T10:10:45;2.90;97.00
10030;DHT22;5055;52.054;8.524;2024-02-28T10:13:16;2.90;97.00
10030;DHT22;5055;52.054;8.524;2024-02-28T10:15:44;3.00;97.00
10030;DHT22;5055;52.054;8.524;2024-02-28T10:18:14;3.10;97.00
10030;DHT22;5055;52.054;8.524;2024-02-28T10:20:43;3.10;97.00
10030;DHT22;5055;52.054;8.524;2024-02-28T10:23:11;3.10;97.00
10030;DHT22;5055;52.054;8.524;2024-02-28T10:25:43;3.10;97.00
10030;DHT22;5055;52.054;8.524;2024-02-28T10:28:23;3.10;97.00
10030;DHT22;5055;52.054;8.524;2024-02-28T10:30:51;3.20;97.00
10030;DHT22;5055;52.054;8.524;2024-02-28T10:33:21;3.20;97.00
10030;DHT22;5055;52.054;8.524;2024-02-28T10:35:50;3.30;97.00
10030;DHT22;5055;52.054;8.524;2024-02-28T10:38:20;3.30;97.00
10030;DHT22;5055;52.054;8.524;2024-02-28T10:40:49;3.30;97.00
10030;DHT22;5055;52.054;8.524;2024-02-28T10:43:19;3.20;97.00
10030;DHT22;5055;52.054;8.524;2024-02-28T10:45:48;3.30;97.00
10030;DHT22;5055;52.054;8.524;2024-02-28T10:48:39;3.30;97.00
10030;DHT22;5055;52.054;8.524;2024-02-28T10:51:09;3.40;97.00
10030;DHT22;5055;52.054;8.524;2024-02-28T10:53:45;3.50;97.00
10030;DHT22;5055;52.054;8.524;2024-02-28T10:56:15;3.50;97.00
10030;DHT22;5055;52.054;8.524;2024-02-28T10:58:51;3.70;97.00
10030;DHT22;5055;52.054;8.524;2024-02-28T11:01:20;3.80;97.00
10030;DHT22;5055;52.054;8.524;2024-02-28T11:03:50;3.90;97.00
10030;DHT22;5055;52.054;8.524;2024-02-28T11:06:20;4.00;97.00
10030;DHT22;5055;52.054;8.524;2024-02-28T11:08:49;4.10;97.00
10030;DHT22;5055;52.054;8.524;2024-02-28T11:11:21;3.90;97.00
10030;DHT22;5055;52.054;8.524;2024-02-28T11:13:53;3.90;97.00
10030;DHT22;5055;52.054;8.524;2024-02-28T11:16:29;3.90;97.00
10030;DHT22;5055;52.054;8.524;2024-02-28T11:19:00;3.90;97.00
10030;DHT22;5055;52.054;8.524;2024-02-28T11:21:33;4.00;97.00
10030;DHT22;5055;52.054;8.524;2024-02-28T11:24:03;4.10;97.00
10030;DHT22;5055;52.054;8.524;2024-02-28T11:26:31;4.20;97.00
10030;DHT22;5055;52.054;8.524;2024-02-28T11:29:00;4.10;97.00
10030;DHT22;5055;52.054;8.524;2024-02-28T11:31:28;4.20;97.00
10030;DHT22;5055;52.054;8.524;2024-02-28T11:33:56;4.10;97.00
10030;DHT22;5055;52.054;8.524;2024-02-28T11:36:25;4.20;97.00
10030;DHT22;5055;52.054;8.524;2024-02-28T11:38:53;4.20;97.00
10030;DHT22;5055;52.054;8.524;2024-02-28T11:41:26;4.30;97.00
10030;DHT22;5055;52.054;8.524;2024-02-28T11:43:55;4.40;97.00
10030;DHT22;5055;52.054;8.524;2024-02-28T11:46:23;4.40;97.00
10030;DHT22;5055;52.054;8.524;2024-02-28T11:48:52;4.50;97.00
10030;DHT22;5055;52.054;8.524;2024-02-28T11:51:22;4.40;97.00
10030;DHT22;5055;52.054;8.524;2024-02-28T11:53:52;4.50;97.00
10030;DHT22;5055;52.054;8.524;2024-02-28T11:56:20;4.50;97.00
10030;DHT22;5055;52.054;8.524;2024-02-28T11:58:52;4.50;97.00
10030;DHT22;5055;52.054;8.524;2024-02-28T12:01:31;4.50;97.00
10030;DHT22;5055;52.054;8.524;2024-02-28T12:03:59;4.50;97.00
10030;DHT22;5055;52.054;8.524;2024-02-28T12:06:27;4.50;97.00
10030;DHT22;5055;52.054;8.524;2024-02-28T12:08:58;4.60;97.00
10030;DHT22;5055;52.054;8.524;2024-02-28T12:11:26;4.60;97.00
10030;DHT22;5055;52.054;8.524;2024-02-28T12:13:56;4.70;97.00
10030;DHT22;5055;52.054;8.524;2024-02-28T12:16:25;4.80;97.00
10030;DHT22;5055;52.054;8.524;2024-02-28T12:18:54;4.80;97.00
10030;DHT22;5055;52.054;8.524;2024-02-28T12:21:22;4.80;97.00
10030;DHT22;5055;52.054;8.524;2024-02-28T12:23:50;4.80;97.00
10030;DHT22;5055;52.054;8.524;2024-02-28T12:26:20;4.80;97.00
10030;DHT22;5055;52.054;8.524;2024-02-28T12:28:49;4.70;97.00
10030;DHT22;5055;52.054;8.524;2024-02-28T12:31:17;4.60;97.00
10030;DHT22;5055;52.054;8.524;2024-02-28T12:33:45;4.60;97.00
10030;DHT22;5055;52.054;8.524;2024-02-28T12:36:14;4.60;97.00
10030;DHT22;5055;52.054;8.524;2024-02-28T12:38:42;4.70;97.00
10030;DHT22;5055;52.054;8.524;2024-02-28T12:41:10;4.80;97.00
10030;DHT22;5055;52.054;8.524;2024-02-28T12:43:40;4.90;97.00
10030;DHT22;5055;52.054;8.524;2024-02-28T12:46:08;5.00;97.00
10030;DHT22;5055;52.054;8.524;2024-02-28T12:48:37;5.10;97.00
10030;DHT22;5055;52.054;8.524;2024-02-28T12:51:06;5.10;97.00
10030;DHT22;5055;52.054;8.524;2024-02-28T12:53:34;5.20;97.00
10030;DHT22;5055;52.054;8.524;2024-02-28T12:56:03;5.20;97.00
10030;DHT22;5055;52.054;8.524;2024-02-28T12:58:31;5.20;97.00
10030;DHT22;5055;52.054;8.524;2024-02-28T13:01:00;5.20;97.00
10030;DHT22;5055;52.054;8.524;2024-02-28T13:03:28;5.30;97.00
10030;DHT22;5055;52.054;8.524;2024-02-28T13:05:57;5.50;97.00
10030;DHT22;5055;52.054;8.524;2024-02-28T13:08:25;5.60;97.00
10030;DHT22;5055;52.054;8.524;2024-02-28T13:10:53;5.60;97.00
10030;DHT22;5055;52.054;8.524;2024-02-28T13:13:23;5.50;97.00
10030;DHT22;5055;52.054;8.524;2024-02-28T13:15:52;5.60;97.00
10030;DHT22;5055;52.054;8.524;2024-02-28T13:18:21;5.70;97.00
10030;DHT22;5055;52.054;8.524;2024-02-28T13:20:49;5.70;97.00
10030;DHT22;5055;52.054;8.524;2024-02-28T13:23:18;5.90;97.00
10030;DHT22;5055;52.054;8.524;2024-02-28T13:25:47;5.90;97.00
10030;DHT22;5055;52.054;8.524;2024-02-28T13:28:16;6.10;97.00
10030;DHT22;5055;52.054;8.524;2024-02-28T13:30:44;6.10;97.00
10030;DHT22;5055;52.054;8.524;2024-02-28T13:33:12;6.20;97.00
10030;DHT22;5055;52.054;8.524;2024-02-28T13:35:42;6.20;97.00
10030;DHT22;5055;52.054;8.524;2024-02-28T13:38:10;6.30;97.00
10030;DHT22;5055;52.054;8.524;2024-02-28T13:40:38;6.40;97.00
10030;DHT22;5055;52.054;8.524;2024-02-28T13:43:08;6.50;97.00
10030;DHT22;5055;52.054;8.524;2024-02-28T13:45:38;6.60;97.00
10030;DHT22;5055;52.054;8.524;2024-02-28T13:48:15;6.90;97.00
10030;DHT22;5055;52.054;8.524;2024-02-28T13:50:45;7.10;97.00
10030;DHT22;5055;52.054;8.524;2024-02-28T13:53:14;7.50;97.00
10030;DHT22;5055;52.054;8.524;2024-02-28T13:55:43;8.10;97.00
10030;DHT22;5055;52.054;8.524;2024-02-28T13:58:12;8.40;97.00
10030;DHT22;5055;52.054;8.524;2024-02-28T14:00:41;8.90;97.00
10030;DHT22;5055;52.054;8.524;2024-02-28T14:03:11;9.30;97.00
10030;DHT22;5055;52.054;8.524;2024-02-28T14:05:40;9.30;97.00
10030;DHT22;5055;52.054;8.524;2024-02-28T14:08:09;9.50;97.00
10030;DHT22;5055;52.054;8.524;2024-02-28T14:10:39;9.40;97.00
10030;DHT22;5055;52.054;8.524;2024-02-28T14:13:07;9.40;97.00
10030;DHT22;5055;52.054;8.524;2024-02-28T14:15:36;9.60;97.00
10030;DHT22;5055;52.054;8.524;2024-02-28T14:18:05;9.50;97.00
10030;DHT22;5055;52.054;8.524;2024-02-28T14:20:33;9.30;97.00
10030;DHT22;5055;52.054;8.524;2024-02-28T14:23:01;9.10;97.00
10030;DHT22;5055;52.054;8.524;2024-02-28T14:25:31;8.70;97.00
10030;DHT22;5055;52.054;8.524;2024-02-28T14:28:00;8.40;97.00
10030;DHT22;5055;52.054;8.524;2024-02-28T14:30:28;8.40;97.00
10030;DHT22;5055;52.054;8.524;2024-02-28T14:32:56;8.30;97.00
10030;DHT22;5055;52.054;8.524;2024-02-28T14:35:24;8.30;97.00
10030;DHT22;5055;52.054;8.524;2024-02-28T14:37:52;8.40;97.00
10030;DHT22;5055;52.054;8.524;2024-02-28T14:40:21;8.50;97.00
10030;DHT22;5055;52.054;8.524;2024-02-28T14:42:50;8.30;97.00
10030;DHT22;5055;52.054;8.524;2024-02-28T14:45:19;8.20;97.00
10030;DHT22;5055;52.054;8.524;2024-02-28T14:47:47;8.00;97.00
10030;DHT22;5055;52.054;8.524;2024-02-28T14:50:15;8.00;97.00
10030;DHT22;5055;52.054;8.524;2024-02-28T14:52:43;7.80;97.00
10030;DHT22;5055;52.054;8.524;2024-02-28T14:55:11;7.80;97.00
10030;DHT22;5055;52.054;8.524;2024-02-28T14:57:40;7.70;97.00
10030;DHT22;5055;52.054;8.524;2024-02-28T15:00:12;7.60;97.00
10030;DHT22;5055;52.054;8.524;2024-02-28T15:02:42;7.60;97.00
10030;DHT22;5055;52.054;8.524;2024-02-28T15:05:12;7.60;97.00
10030;DHT22;5055;52.054;8.524;2024-02-28T15:07:41;7.60;97.00
10030;DHT22;5055;52.054;8.524;2024-02-28T15:10:09;7.60;97.00
10030;DHT22;5055;52.054;8.524;2024-02-28T15:12:38;7.60;97.00
10030;DHT22;5055;52.054;8.524;2024-02-28T15:15:08;7.50;97.00
10030;DHT22;5055;52.054;8.524;2024-02-28T15:17:39;7.50;97.00
10030;DHT22;5055;52.054;8.524;2024-02-28T15:20:08;7.40;97.00
10030;DHT22;5055;52.054;8.524;2024-02-28T15:22:36;7.40;97.00
10030;DHT22;5055;52.054;8.524;2024-02-28T15:25:06;7.30;97.00
10030;DHT22;5055;52.054;8.524;2024-02-28T15:27:35;7.30;97.00
10030;DHT22;5055;52.054;8.524;2024-02-28T15:30:04;7.30;97.00
10030;DHT22;5055;52.054;8.524;2024-02-28T15:32:33;7.10;97.00
10030;DHT22;5055;52.054;8.524;2024-02-28T15:35:08;7.20;97.00
10030;DHT22;5055;52.054;8.524;2024-02-28T15:37:36;7.20;97.00
10030;DHT22;5055;52.054;8.524;2024-02-28T15:40:06;7.10;97.00
10030;DHT22;5055;52.054;8.524;2024-02-28T15:42:35;7.00;97.00
10030;DHT22;5055;52.054;8.524;2024-02-28T15:45:04;7.00;97.00
10030;DHT22;5055;52.054;8.524;2024-02-28T15:47:32;6.90;97.00
10030;DHT22;5055;52.054;8.524;2024-02-28T15:50:02;6.90;97.00
10030;DHT22;5055;52.054;8.524;2024-02-28T15:52:33;6.80;97.00
10030;DHT22;5055;52.054;8.524;2024-02-28T15:55:01;6.80;97.00
10030;DHT22;5055;52.054;8.524;2024-02-28T15:57:30;6.70;97.00
10030;DHT22;5055;52.054;8.524;2024-02-28T15:59:59;6.70;97.00
10030;DHT22;5055;52.054;8.524;2024-02-28T16:02:27;6.70;97.00
10030;DHT22;5055;52.054;8.524;2024-02-28T16:04:55;6.60;97.00
10030;DHT22;5055;52.054;8.524;2024-02-28T16:07:24;6.60;97.00